sensor_id;sensor_type;location;lat;lon;timestamp;temperature;humidity
24262;DHT22;12385;51.412;5.540;2023-01-15T00:00:14;7.50;99.90
24262;DHT22;12385;51.412;5.540;2023-01-15T00:02:40;7.50;99.90
24262;DHT22;12385;51.412;5.540;2023-01-15T00:05:06;7.40;99.90
24262;DHT22;12385;51.412;5.540;2023-01-15T00:07:32;7.50;99.90
24262;DHT22;12385;51.412;5.540;2023-01-15T00:09:57;7.40;99.90
24262;DHT22;12385;51.412;5.540;2023-01-15T00:12:23;7.40;99.90
24262;DHT22;12385;51.412;5.540;2023-01-15T00:14:50;7.40;99.90
24262;DHT22;12385;51.412;5.540;2023-01-15T00:17:17;7.40;99.90
24262;DHT22;12385;51.412;5.540;2023-01-15T00:19:42;7.30;99.90
24262;DHT22;12385;51.412;5.540;2023-01-15T00:22:08;7.30;99.90
24262;DHT22;12385;51.412;5.540;2023-01-15T00:24:33;7.30;99.90
24262;DHT22;12385;51.412;5.540;2023-01-15T00:27:17;7.40;99.90
24262;DHT22;12385;51.412;5.540;2023-01-15T00:30:02;7.30;99.90
24262;DHT22;12385;51.412;5.540;2023-01-15T00:32:28;7.30;99.90
24262;DHT22;12385;51.412;5.540;2023-01-15T00:34:54;7.30;99.90
24262;DHT22;12385;51.412;5.540;2023-01-15T00:37:20;7.30;99.90
24262;DHT22;12385;51.412;5.540;2023-01-15T00:39:46;7.40;99.90
24262;DHT22;12385;51.412;5.540;2023-01-15T00:42:12;7.40;99.90
24262;DHT22;12385;51.412;5.540;2023-01-15T00:44:38;7.40;99.90
24262;DHT22;12385;51.412;5.540;2023-01-15T00:47:05;7.40;99.90
24262;DHT22;12385;51.412;5.540;2023-01-15T00:49:33;7.40;99.90
24262;DHT22;12385;51.412;5.540;2023-01-15T00:51:58;7.50;99.90
24262;DHT22;12385;51.412;5.540;2023-01-15T00:54:24;7.50;99.90
24262;DHT22;12385;51.412;5.540;2023-01-15T00:56:50;7.50;99.90
24262;DHT22;12385;51.412;5.540;2023-01-15T00:59:15;7.50;99.90
24262;DHT22;12385;51.412;5.540;2023-01-15T01:01:41;7.50;99.90
24262;DHT22;12385;51.412;5.540;2023-01-15T01:04:07;7.50;99.90
24262;DHT22;12385;51.412;5.540;2023-01-15T01:06:32;7.50;99.90
24262;DHT22;12385;51.412;5.540;2023-01-15T01:08:58;7.50;99.90
24262;DHT22;12385;51.412;5.540;2023-01-15T01:11:24;7.50;99.90
24262;DHT22;12385;51.412;5.540;2023-01-15T01:13:52;7.60;99.90
24262;DHT22;12385;51.412;5.540;2023-01-15T01:16:32;7.60;99.90
24262;DHT22;12385;51.412;5.540;2023-01-15T01:19:01;7.60;99.90
24262;DHT22;12385;51.412;5.540;2023-01-15T01:21:29;7.50;99.90
24262;DHT22;12385;51.412;5.540;2023-01-15T01:23:57;7.50;99.90
24262;DHT22;12385;51.412;5.540;2023-01-15T01:26:23;7.60;99.90
24262;DHT22;12385;51.412;5.540;2023-01-15T01:28:50;7.50;99.90
24262;DHT22;12385;51.412;5.540;2023-01-15T01:31:16;7.60;99.90
24262;DHT22;12385;51.412;5.540;2023-01-15T01:33:43;7.60;99.90
24262;DHT22;12385;51.412;5.540;2023-01-15T01:36:09;7.60;99.90
24262;DHT22;12385;51.412;5.540;2023-01-15T01:38:35;7.60;99.90
24262;DHT22;12385;51.412;5.540;2023-01-15T01:41:01;7.60;99.90
24262;DHT22;12385;51.412;5.540;2023-01-15T01:43:28;7.60;99.90
24262;DHT22;12385;51.412;5.540;2023-01-15T01:45:54;7.60;99.90
24262;DHT22;12385;51.412;5.540;2023-01-15T01:48:27;7.60;99.90
24262;DHT22;12385;51.412;5.540;2023-01-15T01:50:57;7.60;99.90
24262;DHT22;12385;51.412;5.540;2023-01-15T01:53:27;7.60;99.90
24262;DHT22;12385;51.412;5.540;2023-01-15T01:55:55;7.60;99.90
24262;DHT22;12385;51.412;5.540;2023-01-15T01:58:22;7.60;99.90
24262;DHT22;12385;51.412;5.540;2023-01-15T02:00:50;7.60;99.90
24262;DHT22;12385;51.412;5.540;2023-01-15T02:03:19;7.60;99.90
24262;DHT22;12385;51.412;5.540;2023-01-15T02:05:52;7.60;99.90
24262;DHT22;12385;51.412;5.540;2023-01-15T02:08:18;7.60;99.90
24262;DHT22;12385;51.412;5.540;2023-01-15T02:10:49;7.60;99.90
24262;DHT22;12385;51.412;5.540;2023-01-15T02:13:23;7.50;99.90
24262;DHT22;12385;51.412;5.540;2023-01-15T02:15:56;7.60;99.90
24262;DHT22;12385;51.412;5.540;2023-01-15T02:24:05;7.60;99.90
24262;DHT22;12385;51.412;5.540;2023-01-15T02:32:03;7.50;99.90
24262;DHT22;12385;51.412;5.540;2023-01-15T02:34:30;7.50;99.90
24262;DHT22;12385;51.412;5.540;2023-01-15T02:37:02;7.50;99.90
24262;DHT22;12385;51.412;5.540;2023-01-15T02:39:29;7.50;99.90
24262;DHT22;12385;51.412;5.540;2023-01-15T02:42:00;7.50;99.90
24262;DHT22;12385;51.412;5.540;2023-01-15T02:44:29;7.50;99.90
24262;DHT22;12385;51.412;5.540;2023-01-15T02:46:57;7.50;99.90
24262;DHT22;12385;51.412;5.540;2023-01-15T02:49:23;7.50;99.90
24262;DHT22;12385;51.412;5.540;2023-01-15T02:52:23;7.50;99.90
24262;DHT22;12385;51.412;5.540;2023-01-15T02:54:59;7.50;99.90
24262;DHT22;12385;51.412;5.540;2023-01-15T02:57:29;7.50;99.90
24262;DHT22;12385;51.412;5.540;2023-01-15T03:00:00;7.50;99.90
24262;DHT22;12385;51.412;5.540;2023-01-15T03:02:34;7.50;99.90
24262;DHT22;12385;51.412;5.540;2023-01-15T03:05:27;7.50;99.90
24262;DHT22;12385;51.412;5.540;2023-01-15T03:08:07;7.50;99.90
24262;DHT22;12385;51.412;5.540;2023-01-15T03:10:45;7.40;99.90
24262;DHT22;12385;51.412;5.540;2023-01-15T03:13:24;7.40;99.90
24262;DHT22;12385;51.412;5.540;2023-01-15T03:16:02;7.40;99.90
24262;DHT22;12385;51.412;5.540;2023-01-15T03:19:09;7.40;99.90
24262;DHT22;12385;51.412;5.540;2023-01-15T03:24:12;7.40;99.90
24262;DHT22;12385;51.412;5.540;2023-01-15T03:26:39;7.40;99.90
24262;DHT22;12385;51.412;5.540;2023-01-15T03:29:06;7.40;99.90
24262;DHT22;12385;51.412;5.540;2023-01-15T03:31:33;7.40;99.90
24262;DHT22;12385;51.412;5.540;2023-01-15T03:34:00;7.40;99.90
24262;DHT22;12385;51.412;5.540;2023-01-15T03:36:26;7.30;99.90
24262;DHT22;12385;51.412;5.540;2023-01-15T03:38:54;7.30;99.90
24262;DHT22;12385;51.412;5.540;2023-01-15T03:41:30;7.30;99.90
24262;DHT22;12385;51.412;5.540;2023-01-15T03:44:17;7.30;99.90
24262;DHT22;12385;51.412;5.540;2023-01-15T03:52:23;7.30;99.90
24262;DHT22;12385;51.412;5.540;2023-01-15T03:55:05;7.30;99.90
24262;DHT22;12385;51.412;5.540;2023-01-15T03:57:55;7.30;99.90
24262;DHT22;12385;51.412;5.540;2023-01-15T04:00:27;7.30;99.90
24262;DHT22;12385;51.412;5.540;2023-01-15T04:02:54;7.20;99.90
24262;DHT22;12385;51.412;5.540;2023-01-15T04:05:21;7.20;99.90
24262;DHT22;12385;51.412;5.540;2023-01-15T04:07:48;7.20;99.90
24262;DHT22;12385;51.412;5.540;2023-01-15T04:10:15;7.20;99.90
24262;DHT22;12385;51.412;5.540;2023-01-15T04:12:41;7.30;99.90
24262;DHT22;12385;51.412;5.540;2023-01-15T04:15:07;7.30;99.90
24262;DHT22;12385;51.412;5.540;2023-01-15T04:17:33;7.30;99.90
24262;DHT22;12385;51.412;5.540;2023-01-15T04:19:59;7.30;99.90
24262;DHT22;12385;51.412;5.540;2023-01-15T04:22:24;7.30;99.90
24262;DHT22;12385;51.412;5.540;2023-01-15T04:24:50;7.30;99.90
24262;DHT22;12385;51.412;5.540;2023-01-15T04:27:16;7.30;99.90
24262;DHT22;12385;51.412;5.540;2023-01-15T04:29:41;7.40;99.90
24262;DHT22;12385;51.412;5.540;2023-01-15T04:32:07;7.40;99.90
24262;DHT22;12385;51.412;5.540;2023-01-15T04:34:34;7.40;99.90
24262;DHT22;12385;51.412;5.540;2023-01-15T04:37:00;7.40;99.90
24262;DHT22;12385;51.412;5.540;2023-01-15T04:39:26;7.40;99.90
24262;DHT22;12385;51.412;5.540;2023-01-15T04:41:51;7.40;99.90
24262;DHT22;12385;51.412;5.540;2023-01-15T04:44:36;7.30;99.90
24262;DHT22;12385;51.412;5.540;2023-01-15T04:47:02;7.30;99.90
24262;DHT22;12385;51.412;5.540;2023-01-15T04:49:28;7.30;99.90
24262;DHT22;12385;51.412;5.540;2023-01-15T04:51:55;7.30;99.90
24262;DHT22;12385;51.412;5.540;2023-01-15T04:54:20;7.30;99.90
24262;DHT22;12385;51.412;5.540;2023-01-15T04:56:49;7.30;99.90
24262;DHT22;12385;51.412;5.540;2023-01-15T04:59:17;7.30;99.90
24262;DHT22;12385;51.412;5.540;2023-01-15T05:01:42;7.40;99.90
24262;DHT22;12385;51.412;5.540;2023-01-15T05:04:08;7.40;99.90
24262;DHT22;12385;51.412;5.540;2023-01-15T05:06:35;7.40;99.90
24262;DHT22;12385;51.412;5.540;2023-01-15T05:09:02;7.40;99.90
24262;DHT22;12385;51.412;5.540;2023-01-15T05:11:28;7.40;99.90
24262;DHT22;12385;51.412;5.540;2023-01-15T05:13:54;7.30;99.90
24262;DHT22;12385;51.412;5.540;2023-01-15T05:16:23;7.30;99.90
24262;DHT22;12385;51.412;5.540;2023-01-15T05:18:50;7.30;99.90
24262;DHT22;12385;51.412;5.540;2023-01-15T05:21:21;7.30;99.90
24262;DHT22;12385;51.412;5.540;2023-01-15T05:23:48;7.30;99.90
24262;DHT22;12385;51.412;5.540;2023-01-15T05:26:15;7.30;99.90
24262;DHT22;12385;51.412;5.540;2023-01-15T05:28:41;7.30;99.90
24262;DHT22;12385;51.412;5.540;2023-01-15T05:31:14;7.30;99.90
24262;DHT22;12385;51.412;5.540;2023-01-15T05:33:41;7.40;99.90
24262;DHT22;12385;51.412;5.540;2023-01-15T05:36:11;7.40;99.90
24262;DHT22;12385;51.412;5.540;2023-01-15T05:38:38;7.40;99.90
24262;DHT22;12385;51.412;5.540;2023-01-15T05:41:13;7.40;99.90
24262;DHT22;12385;51.412;5.540;2023-01-15T05:44:07;7.30;99.90
24262;DHT22;12385;51.412;5.540;2023-01-15T05:46:34;7.30;99.90
24262;DHT22;12385;51.412;5.540;2023-01-15T05:49:02;7.30;99.90
24262;DHT22;12385;51.412;5.540;2023-01-15T05:51:28;7.20;99.90
24262;DHT22;12385;51.412;5.540;2023-01-15T05:53:55;7.20;99.90
24262;DHT22;12385;51.412;5.540;2023-01-15T05:56:21;7.10;99.90
24262;DHT22;12385;51.412;5.540;2023-01-15T05:58:47;7.00;99.90
24262;DHT22;12385;51.412;5.540;2023-01-15T06:01:12;7.00;99.90
24262;DHT22;12385;51.412;5.540;2023-01-15T06:03:38;7.00;99.90
24262;DHT22;12385;51.412;5.540;2023-01-15T06:06:06;6.90;99.90
24262;DHT22;12385;51.412;5.540;2023-01-15T06:08:31;6.90;99.90
24262;DHT22;12385;51.412;5.540;2023-01-15T06:10:57;6.90;99.90
24262;DHT22;12385;51.412;5.540;2023-01-15T06:13:23;6.90;99.90
24262;DHT22;12385;51.412;5.540;2023-01-15T06:15:48;6.90;99.90
24262;DHT22;12385;51.412;5.540;2023-01-15T06:18:14;6.90;99.90
24262;DHT22;12385;51.412;5.540;2023-01-15T06:20:41;6.90;99.90
24262;DHT22;12385;51.412;5.540;2023-01-15T06:23:07;6.90;99.90
24262;DHT22;12385;51.412;5.540;2023-01-15T06:25:34;6.90;99.90
24262;DHT22;12385;51.412;5.540;2023-01-15T06:28:05;6.90;99.90
24262;DHT22;12385;51.412;5.540;2023-01-15T06:30:31;6.80;99.90
24262;DHT22;12385;51.412;5.540;2023-01-15T06:32:57;6.80;99.90
24262;DHT22;12385;51.412;5.540;2023-01-15T06:35:23;6.80;99.90
24262;DHT22;12385;51.412;5.540;2023-01-15T06:37:50;6.90;99.90
24262;DHT22;12385;51.412;5.540;2023-01-15T06:40:16;6.80;99.90
24262;DHT22;12385;51.412;5.540;2023-01-15T06:42:42;6.80;99.90
24262;DHT22;12385;51.412;5.540;2023-01-15T06:45:28;6.80;99.90
24262;DHT22;12385;51.412;5.540;2023-01-15T06:48:16;6.80;99.90
24262;DHT22;12385;51.412;5.540;2023-01-15T06:50:43;6.80;99.90
24262;DHT22;12385;51.412;5.540;2023-01-15T06:53:09;6.70;99.90
24262;DHT22;12385;51.412;5.540;2023-01-15T06:55:34;6.80;99.90
24262;DHT22;12385;51.412;5.540;2023-01-15T06:58:02;6.80;99.90
24262;DHT22;12385;51.412;5.540;2023-01-15T07:00:28;6.90;99.90
24262;DHT22;12385;51.412;5.540;2023-01-15T07:02:53;6.90;99.90
24262;DHT22;12385;51.412;5.540;2023-01-15T07:05:19;6.90;99.90
24262;DHT22;12385;51.412;5.540;2023-01-15T07:07:45;6.90;99.90
24262;DHT22;12385;51.412;5.540;2023-01-15T07:10:10;6.90;99.90
24262;DHT22;12385;51.412;5.540;2023-01-15T07:12:37;6.90;99.90
24262;DHT22;12385;51.412;5.540;2023-01-15T07:15:03;6.90;99.90
24262;DHT22;12385;51.412;5.540;2023-01-15T07:17:28;6.90;99.90
24262;DHT22;12385;51.412;5.540;2023-01-15T07:19:54;6.90;99.90
24262;DHT22;12385;51.412;5.540;2023-01-15T07:22:20;6.90;99.90
24262;DHT22;12385;51.412;5.540;2023-01-15T07:24:45;6.90;99.90
24262;DHT22;12385;51.412;5.540;2023-01-15T07:27:11;6.90;99.90
24262;DHT22;12385;51.412;5.540;2023-01-15T07:29:36;6.90;99.90
24262;DHT22;12385;51.412;5.540;2023-01-15T07:32:02;6.90;99.90
24262;DHT22;12385;51.412;5.540;2023-01-15T07:34:28;6.90;99.90
24262;DHT22;12385;51.412;5.540;2023-01-15T07:36:53;6.90;99.90
24262;DHT22;12385;51.412;5.540;2023-01-15T07:39:19;6.90;99.90
24262;DHT22;12385;51.412;5.540;2023-01-15T07:41:45;6.90;99.90
24262;DHT22;12385;51.412;5.540;2023-01-15T07:44:29;6.80;99.90
24262;DHT22;12385;51.412;5.540;2023-01-15T07:47:20;6.70;99.90
24262;DHT22;12385;51.412;5.540;2023-01-15T07:50:10;6.70;99.90
24262;DHT22;12385;51.412;5.540;2023-01-15T07:52:36;6.60;99.90
24262;DHT22;12385;51.412;5.540;2023-01-15T07:55:02;6.60;99.90
24262;DHT22;12385;51.412;5.540;2023-01-15T07:57:28;6.60;99.90
24262;DHT22;12385;51.412;5.540;2023-01-15T07:59:54;6.60;99.90
24262;DHT22;12385;51.412;5.540;2023-01-15T08:02:20;6.60;99.90
24262;DHT22;12385;51.412;5.540;2023-01-15T08:04:45;6.60;99.90
24262;DHT22;12385;51.412;5.540;2023-01-15T08:07:13;6.50;99.90
24262;DHT22;12385;51.412;5.540;2023-01-15T08:09:39;6.50;99.90
24262;DHT22;12385;51.412;5.540;2023-01-15T08:12:04;6.50;99.90
24262;DHT22;12385;51.412;5.540;2023-01-15T08:14:49;6.40;99.90
24262;DHT22;12385;51.412;5.540;2023-01-15T08:17:36;6.40;99.90
24262;DHT22;12385;51.412;5.540;2023-01-15T08:20:04;6.30;99.90
24262;DHT22;12385;51.412;5.540;2023-01-15T08:22:29;6.30;99.90
24262;DHT22;12385;51.412;5.540;2023-01-15T08:24:56;6.20;99.90
24262;DHT22;12385;51.412;5.540;2023-01-15T08:27:22;6.20;99.90
24262;DHT22;12385;51.412;5.540;2023-01-15T08:29:47;6.20;99.90
24262;DHT22;12385;51.412;5.540;2023-01-15T08:32:13;6.10;99.90
24262;DHT22;12385;51.412;5.540;2023-01-15T08:34:38;6.20;99.90
24262;DHT22;12385;51.412;5.540;2023-01-15T08:37:04;6.10;99.90
24262;DHT22;12385;51.412;5.540;2023-01-15T08:39:30;6.10;99.90
24262;DHT22;12385;51.412;5.540;2023-01-15T08:41:56;6.10;99.90
24262;DHT22;12385;51.412;5.540;2023-01-15T08:44:22;6.20;99.90
24262;DHT22;12385;51.412;5.540;2023-01-15T08:46:49;6.20;99.90
24262;DHT22;12385;51.412;5.540;2023-01-15T08:49:15;6.20;99.90
24262;DHT22;12385;51.412;5.540;2023-01-15T08:51:43;6.20;99.90
24262;DHT22;12385;51.412;5.540;2023-01-15T08:54:09;6.20;99.90
24262;DHT22;12385;51.412;5.540;2023-01-15T08:56:34;6.20;99.90
24262;DHT22;12385;51.412;5.540;2023-01-15T08:59:06;6.20;99.90
24262;DHT22;12385;51.412;5.540;2023-01-15T09:01:33;6.30;99.90
24262;DHT22;12385;51.412;5.540;2023-01-15T09:03:58;6.30;99.90
24262;DHT22;12385;51.412;5.540;2023-01-15T09:06:24;6.30;99.90
24262;DHT22;12385;51.412;5.540;2023-01-15T09:08:50;6.30;99.90
24262;DHT22;12385;51.412;5.540;2023-01-15T09:11:16;6.30;99.90
24262;DHT22;12385;51.412;5.540;2023-01-15T09:13:41;6.30;99.90
24262;DHT22;12385;51.412;5.540;2023-01-15T09:16:07;6.40;99.90
24262;DHT22;12385;51.412;5.540;2023-01-15T09:18:36;6.40;99.90
24262;DHT22;12385;51.412;5.540;2023-01-15T09:21:01;6.40;99.90
24262;DHT22;12385;51.412;5.540;2023-01-15T09:23:28;6.40;99.90
24262;DHT22;12385;51.412;5.540;2023-01-15T09:25:55;6.50;99.90
24262;DHT22;12385;51.412;5.540;2023-01-15T09:28:21;6.50;99.90
24262;DHT22;12385;51.412;5.540;2023-01-15T09:30:47;6.50;99.90
24262;DHT22;12385;51.412;5.540;2023-01-15T09:33:13;6.60;99.90
24262;DHT22;12385;51.412;5.540;2023-01-15T09:35:39;6.60;99.90
24262;DHT22;12385;51.412;5.540;2023-01-15T09:38:05;6.60;99.90
24262;DHT22;12385;51.412;5.540;2023-01-15T09:40:43;6.70;99.90
24262;DHT22;12385;51.412;5.540;2023-01-15T09:43:16;6.80;99.90
24262;DHT22;12385;51.412;5.540;2023-01-15T09:46:08;6.80;99.90
24262;DHT22;12385;51.412;5.540;2023-01-15T09:49:08;7.00;99.90
24262;DHT22;12385;51.412;5.540;2023-01-15T09:56:56;7.20;99.90
24262;DHT22;12385;51.412;5.540;2023-01-15T09:59:34;7.30;99.90
24262;DHT22;12385;51.412;5.540;2023-01-15T10:02:37;7.30;99.90
24262;DHT22;12385;51.412;5.540;2023-01-15T10:05:06;7.30;99.90
24262;DHT22;12385;51.412;5.540;2023-01-15T10:07:43;7.20;99.90
24262;DHT22;12385;51.412;5.540;2023-01-15T10:10:14;7.30;99.90
24262;DHT22;12385;51.412;5.540;2023-01-15T10:12:43;7.30;99.90
24262;DHT22;12385;51.412;5.540;2023-01-15T10:17:43;7.30;99.90
24262;DHT22;12385;51.412;5.540;2023-01-15T10:21:05;7.40;99.90
24262;DHT22;12385;51.412;5.540;2023-01-15T10:26:43;7.40;99.90
24262;DHT22;12385;51.412;5.540;2023-01-15T10:34:39;7.50;99.90
24262;DHT22;12385;51.412;5.540;2023-01-15T10:37:32;7.50;99.90
24262;DHT22;12385;51.412;5.540;2023-01-15T10:40:15;7.60;99.90
24262;DHT22;12385;51.412;5.540;2023-01-15T10:43:01;7.60;99.90
24262;DHT22;12385;51.412;5.540;2023-01-15T10:45:31;7.60;99.90
24262;DHT22;12385;51.412;5.540;2023-01-15T10:50:50;7.50;99.90
24262;DHT22;12385;51.412;5.540;2023-01-15T10:53:30;7.50;99.90
24262;DHT22;12385;51.412;5.540;2023-01-15T10:56:04;7.40;99.90
24262;DHT22;12385;51.412;5.540;2023-01-15T10:58:35;7.50;99.90
24262;DHT22;12385;51.412;5.540;2023-01-15T11:01:04;7.50;99.90
24262;DHT22;12385;51.412;5.540;2023-01-15T11:03:38;7.50;99.90
24262;DHT22;12385;51.412;5.540;2023-01-15T11:06:07;7.50;99.90
24262;DHT22;12385;51.412;5.540;2023-01-15T11:08:36;7.60;99.90
24262;DHT22;12385;51.412;5.540;2023-01-15T11:11:16;7.60;99.90
24262;DHT22;12385;51.412;5.540;2023-01-15T11:13:52;7.70;99.90
24262;DHT22;12385;51.412;5.540;2023-01-15T11:16:37;7.70;99.90
24262;DHT22;12385;51.412;5.540;2023-01-15T11:19:30;7.70;99.90
24262;DHT22;12385;51.412;5.540;2023-01-15T11:22:14;7.70;99.90
24262;DHT22;12385;51.412;5.540;2023-01-15T11:25:00;7.70;99.90
24262;DHT22;12385;51.412;5.540;2023-01-15T11:27:29;7.80;99.90
24262;DHT22;12385;51.412;5.540;2023-01-15T11:29:59;7.80;99.90
24262;DHT22;12385;51.412;5.540;2023-01-15T11:32:37;7.80;99.90
24262;DHT22;12385;51.412;5.540;2023-01-15T11:35:23;7.80;99.90
24262;DHT22;12385;51.412;5.540;2023-01-15T11:37:48;7.80;99.90
24262;DHT22;12385;51.412;5.540;2023-01-15T11:40:19;7.80;99.90
24262;DHT22;12385;51.412;5.540;2023-01-15T11:42:49;7.80;99.90
24262;DHT22;12385;51.412;5.540;2023-01-15T11:45:33;7.90;99.90
24262;DHT22;12385;51.412;5.540;2023-01-15T11:48:22;7.80;99.90
24262;DHT22;12385;51.412;5.540;2023-01-15T11:51:07;7.80;99.90
24262;DHT22;12385;51.412;5.540;2023-01-15T11:53:40;7.90;99.90
24262;DHT22;12385;51.412;5.540;2023-01-15T11:56:10;8.00;99.90
24262;DHT22;12385;51.412;5.540;2023-01-15T11:58:48;7.90;99.90
24262;DHT22;12385;51.412;5.540;2023-01-15T12:01:33;8.00;99.90
24262;DHT22;12385;51.412;5.540;2023-01-15T12:04:45;7.90;99.90
24262;DHT22;12385;51.412;5.540;2023-01-15T12:06:51;7.90;99.90
24262;DHT22;12385;51.412;5.540;2023-01-15T12:09:33;7.90;99.90
24262;DHT22;12385;51.412;5.540;2023-01-15T12:12:07;7.90;99.90
24262;DHT22;12385;51.412;5.540;2023-01-15T12:20:24;7.90;99.90
24262;DHT22;12385;51.412;5.540;2023-01-15T12:28:34;7.90;99.90
24262;DHT22;12385;51.412;5.540;2023-01-15T12:31:15;7.90;99.90
24262;DHT22;12385;51.412;5.540;2023-01-15T12:36:36;7.90;99.90
24262;DHT22;12385;51.412;5.540;2023-01-15T12:39:11;7.90;99.90
24262;DHT22;12385;51.412;5.540;2023-01-15T12:41:40;7.90;99.90
24262;DHT22;12385;51.412;5.540;2023-01-15T12:44:36;7.90;99.90
24262;DHT22;12385;51.412;5.540;2023-01-15T12:47:27;7.90;99.90
24262;DHT22;12385;51.412;5.540;2023-01-15T12:50:19;7.90;99.90
24262;DHT22;12385;51.412;5.540;2023-01-15T12:52:49;7.80;99.90
24262;DHT22;12385;51.412;5.540;2023-01-15T12:55:26;7.70;99.90
24262;DHT22;12385;51.412;5.540;2023-01-15T12:57:58;7.70;99.90
24262;DHT22;12385;51.412;5.540;2023-01-15T13:00:29;7.60;99.90
24262;DHT22;12385;51.412;5.540;2023-01-15T13:05:49;7.70;99.90
24262;DHT22;12385;51.412;5.540;2023-01-15T13:08:36;7.80;99.90
24262;DHT22;12385;51.412;5.540;2023-01-15T13:11:03;7.90;99.90
24262;DHT22;12385;51.412;5.540;2023-01-15T13:13:35;7.90;99.90
24262;DHT22;12385;51.412;5.540;2023-01-15T13:16:16;8.10;99.90
24262;DHT22;12385;51.412;5.540;2023-01-15T13:21:17;8.20;99.90
24262;DHT22;12385;51.412;5.540;2023-01-15T13:27:16;8.30;99.90
24262;DHT22;12385;51.412;5.540;2023-01-15T13:32:38;8.20;99.90
24262;DHT22;12385;51.412;5.540;2023-01-15T13:38:00;8.20;99.90
24262;DHT22;12385;51.412;5.540;2023-01-15T13:40:38;8.20;99.90
24262;DHT22;12385;51.412;5.540;2023-01-15T13:43:07;8.20;99.90
24262;DHT22;12385;51.412;5.540;2023-01-15T13:45:48;8.20;99.90
24262;DHT22;12385;51.412;5.540;2023-01-15T13:48:44;8.20;99.90
24262;DHT22;12385;51.412;5.540;2023-01-15T13:51:26;8.20;99.90
24262;DHT22;12385;51.412;5.540;2023-01-15T13:53:55;8.20;99.90
24262;DHT22;12385;51.412;5.540;2023-01-15T13:56:30;8.10;99.90
24262;DHT22;12385;51.412;5.540;2023-01-15T13:58:59;8.20;99.90
24262;DHT22;12385;51.412;5.540;2023-01-15T14:01:32;8.20;99.90
24262;DHT22;12385;51.412;5.540;2023-01-15T14:09:24;8.30;99.90
24262;DHT22;12385;51.412;5.540;2023-01-15T14:17:29;8.40;99.90
24262;DHT22;12385;51.412;5.540;2023-01-15T14:22:46;8.30;99.90
24262;DHT22;12385;51.412;5.540;2023-01-15T14:28:20;8.30;99.90
24262;DHT22;12385;51.412;5.540;2023-01-15T14:36:25;8.10;99.90
24262;DHT22;12385;51.412;5.540;2023-01-15T14:39:02;8.10;99.90
24262;DHT22;12385;51.412;5.540;2023-01-15T14:41:31;8.10;99.90
24262;DHT22;12385;51.412;5.540;2023-01-15T14:43:59;8.20;99.90
24262;DHT22;12385;51.412;5.540;2023-01-15T14:46:33;8.20;99.90
24262;DHT22;12385;51.412;5.540;2023-01-15T14:49:00;8.20;99.90
24262;DHT22;12385;51.412;5.540;2023-01-15T14:51:28;8.20;99.90
24262;DHT22;12385;51.412;5.540;2023-01-15T14:54:03;8.20;99.90
24262;DHT22;12385;51.412;5.540;2023-01-15T14:56:36;8.30;99.90
24262;DHT22;12385;51.412;5.540;2023-01-15T14:59:28;8.30;99.90
24262;DHT22;12385;51.412;5.540;2023-01-15T15:02:00;8.30;99.90
24262;DHT22;12385;51.412;5.540;2023-01-15T15:04:33;8.20;99.90
24262;DHT22;12385;51.412;5.540;2023-01-15T15:15:27;8.10;99.90
24262;DHT22;12385;51.412;5.540;2023-01-15T15:26:28;7.90;99.90
24262;DHT22;12385;51.412;5.540;2023-01-15T15:29:05;7.90;99.90
24262;DHT22;12385;51.412;5.540;2023-01-15T15:31:37;7.80;99.90
24262;DHT22;12385;51.412;5.540;2023-01-15T15:34:05;7.80;99.90
24262;DHT22;12385;51.412;5.540;2023-01-15T15:36:34;7.80;99.90
24262;DHT22;12385;51.412;5.540;2023-01-15T15:39:14;7.80;99.90
24262;DHT22;12385;51.412;5.540;2023-01-15T15:41:43;7.80;99.90
24262;DHT22;12385;51.412;5.540;2023-01-15T15:47:24;7.80;99.90
24262;DHT22;12385;51.412;5.540;2023-01-15T15:50:19;7.80;99.90
24262;DHT22;12385;51.412;5.540;2023-01-15T15:52:47;7.70;99.90
24262;DHT22;12385;51.412;5.540;2023-01-15T15:55:14;7.70;99.90
24262;DHT22;12385;51.412;5.540;2023-01-15T15:57:39;7.80;99.90
24262;DHT22;12385;51.412;5.540;2023-01-15T16:00:15;7.70;99.90
24262;DHT22;12385;51.412;5.540;2023-01-15T16:02:42;7.70;99.90
24262;DHT22;12385;51.412;5.540;2023-01-15T16:07:44;7.70;99.90
24262;DHT22;12385;51.412;5.540;2023-01-15T16:12:47;7.60;99.90
24262;DHT22;12385;51.412;5.540;2023-01-15T16:15:15;7.60;99.90
24262;DHT22;12385;51.412;5.540;2023-01-15T16:17:44;7.60;99.90
24262;DHT22;12385;51.412;5.540;2023-01-15T16:20:15;7.60;99.90
24262;DHT22;12385;51.412;5.540;2023-01-15T16:22:58;7.60;99.90
24262;DHT22;12385;51.412;5.540;2023-01-15T16:27:51;7.50;99.90
24262;DHT22;12385;51.412;5.540;2023-01-15T16:30:16;7.50;99.90
24262;DHT22;12385;51.412;5.540;2023-01-15T16:32:43;7.60;99.90
24262;DHT22;12385;51.412;5.540;2023-01-15T16:37:46;7.50;99.90
24262;DHT22;12385;51.412;5.540;2023-01-15T16:40:23;7.50;99.90
24262;DHT22;12385;51.412;5.540;2023-01-15T16:43:04;7.50;99.90
24262;DHT22;12385;51.412;5.540;2023-01-15T16:45:30;7.50;99.90
24262;DHT22;12385;51.412;5.540;2023-01-15T16:50:48;7.50;99.90
24262;DHT22;12385;51.412;5.540;2023-01-15T16:53:40;7.40;99.90
24262;DHT22;12385;51.412;5.540;2023-01-15T16:58:52;7.30;99.90
24262;DHT22;12385;51.412;5.540;2023-01-15T17:01:35;7.20;99.90
24262;DHT22;12385;51.412;5.540;2023-01-15T17:04:02;7.10;99.90
24262;DHT22;12385;51.412;5.540;2023-01-15T17:06:29;7.00;99.90
24262;DHT22;12385;51.412;5.540;2023-01-15T17:08:55;7.00;99.90
24262;DHT22;12385;51.412;5.540;2023-01-15T17:11:28;7.00;99.90
24262;DHT22;12385;51.412;5.540;2023-01-15T17:14:23;6.90;99.90
24262;DHT22;12385;51.412;5.540;2023-01-15T17:17:42;7.00;99.90
24262;DHT22;12385;51.412;5.540;2023-01-15T17:20:00;6.90;99.90
24262;DHT22;12385;51.412;5.540;2023-01-15T17:22:28;6.80;99.90
24262;DHT22;12385;51.412;5.540;2023-01-15T17:24:56;6.80;99.90
24262;DHT22;12385;51.412;5.540;2023-01-15T17:27:23;6.80;99.90
24262;DHT22;12385;51.412;5.540;2023-01-15T17:29:48;6.80;99.90
24262;DHT22;12385;51.412;5.540;2023-01-15T17:32:29;6.80;99.90
24262;DHT22;12385;51.412;5.540;2023-01-15T17:34:55;6.90;99.90
24262;DHT22;12385;51.412;5.540;2023-01-15T17:37:21;6.80;99.90
24262;DHT22;12385;51.412;5.540;2023-01-15T17:39:46;6.90;99.90
24262;DHT22;12385;51.412;5.540;2023-01-15T17:42:17;6.90;99.90
24262;DHT22;12385;51.412;5.540;2023-01-15T17:44:44;6.90;99.90
24262;DHT22;12385;51.412;5.540;2023-01-15T17:47:09;6.90;99.90
24262;DHT22;12385;51.412;5.540;2023-01-15T17:49:35;6.90;99.90
24262;DHT22;12385;51.412;5.540;2023-01-15T17:52:03;7.00;99.90
24262;DHT22;12385;51.412;5.540;2023-01-15T17:54:29;7.00;99.90
24262;DHT22;12385;51.412;5.540;2023-01-15T17:57:14;7.00;99.90
24262;DHT22;12385;51.412;5.540;2023-01-15T17:59:58;6.90;99.90
24262;DHT22;12385;51.412;5.540;2023-01-15T18:02:42;6.80;99.90
24262;DHT22;12385;51.412;5.540;2023-01-15T18:05:28;6.70;99.90
24262;DHT22;12385;51.412;5.540;2023-01-15T18:07:55;6.70;99.90
24262;DHT22;12385;51.412;5.540;2023-01-15T18:10:24;6.60;99.90
24262;DHT22;12385;51.412;5.540;2023-01-15T18:12:50;6.60;99.90
24262;DHT22;12385;51.412;5.540;2023-01-15T18:15:16;6.60;99.90